createdAt,value
2019-04-30T00:00:45.515Z,136.63
2019-04-30T00:03:24.918Z,137.17
2019-04-30T00:05:57.353Z,134.97
2019-04-30T00:08:30.260Z,131.53
2019-04-30T00:10:59.695Z,132.77
2019-04-30T00:13:29.481Z,133.00
2019-04-30T00:16:01.630Z,136.03
2019-04-30T00:18:35.269Z,136.53
2019-04-30T00:21:02.271Z,131.23
2019-04-30T00:23:32.086Z,133.73
2019-04-30T00:26:06.223Z,134.67
2019-04-30T00:28:35.275Z,138.30
2019-04-30T00:31:05.528Z,138.87
2019-04-30T00:33:35.506Z,136.47
2019-04-30T00:36:05.579Z,130.53
2019-04-30T00:38:37.822Z,132.47
2019-04-30T00:41:10.168Z,132.23
2019-04-30T00:43:46.469Z,139.20
2019-04-30T00:46:11.098Z,135.03
2019-04-30T00:48:40.983Z,131.20
2019-04-30T00:51:17.839Z,132.60
2019-04-30T00:53:43.945Z,132.27
2019-04-30T00:56:15.648Z,132.93
2019-04-30T00:58:45.375Z,131.03
2019-04-30T01:01:43.523Z,138.57
2019-04-30T01:04:19.455Z,135.57
2019-04-30T01:06:49.958Z,132.13
2019-04-30T01:09:19.775Z,131.63
2019-04-30T01:11:49.511Z,133.60
2019-04-30T01:14:23.220Z,132.23
2019-04-30T01:16:50.642Z,135.00
2019-04-30T01:19:29.616Z,134.27
2019-04-30T01:21:52.152Z,132.50
2019-04-30T01:24:23.468Z,132.70
2019-04-30T01:26:53.870Z,135.47
2019-04-30T01:29:23.686Z,131.07
2019-04-30T01:31:53.476Z,131.23
2019-04-30T01:34:23.306Z,132.03
2019-04-30T01:36:55.524Z,131.40
2019-04-30T01:39:28.484Z,130.90
2019-04-30T01:41:58.591Z,132.13
2019-04-30T01:44:29.524Z,135.37
2019-04-30T01:46:59.486Z,131.43
2019-04-30T01:49:41.574Z,133.97
2019-04-30T01:52:01.053Z,130.57
2019-04-30T01:54:30.995Z,131.53
2019-04-30T01:57:19.324Z,143.10
2019-04-30T02:00:07.141Z,134.97
2019-04-30T02:02:39.481Z,132.13
2019-04-30T02:05:10.779Z,131.97
2019-04-30T02:07:40.603Z,133.20
2019-04-30T02:10:11.579Z,131.70
2019-04-30T02:12:41.399Z,131.37
2019-04-30T02:15:11.384Z,133.47
2019-04-30T02:17:41.250Z,135.17
2019-04-30T02:20:11.237Z,134.90
2019-04-30T02:22:41.033Z,134.50
2019-04-30T02:25:11.103Z,134.50
2019-04-30T02:27:40.828Z,131.80
2019-04-30T02:30:11.530Z,130.53
2019-04-30T02:32:41.364Z,134.13
2019-04-30T02:35:28.807Z,134.33
2019-04-30T02:38:16.563Z,130.80
2019-04-30T02:40:49.334Z,136.00
2019-04-30T02:43:20.736Z,131.23
2019-04-30T02:45:53.059Z,137.37
2019-04-30T02:48:25.491Z,127.67
2019-04-30T02:51:00.060Z,131.77
2019-04-30T02:54:24.089Z,130.73
2019-04-30T02:57:02.222Z,129.97
2019-04-30T02:59:31.975Z,129.50
2019-04-30T03:02:01.744Z,131.73
2019-04-30T03:04:32.555Z,131.80
2019-04-30T03:07:02.399Z,131.63
2019-04-30T03:09:33.008Z,131.17
2019-04-30T03:12:02.848Z,131.00
2019-04-30T03:14:32.573Z,135.87
2019-04-30T03:17:20.946Z,134.13
2019-04-30T03:20:00.273Z,135.40
2019-04-30T03:22:30.226Z,132.13
2019-04-30T03:25:00.290Z,133.37
2019-04-30T03:27:30.271Z,130.90
2019-04-30T03:30:00.335Z,134.27
2019-04-30T03:32:35.624Z,132.40
2019-04-30T03:35:03.118Z,132.20
2019-04-30T03:37:33.186Z,131.53
2019-04-30T03:40:02.992Z,131.83
2019-04-30T03:42:32.702Z,130.10
2019-04-30T03:45:02.741Z,131.40
2019-04-30T03:47:32.728Z,129.23
2019-04-30T03:50:02.525Z,129.43
2019-04-30T03:52:32.349Z,128.93
2019-04-30T03:55:02.928Z,131.83
2019-04-30T03:57:32.964Z,129.90
2019-04-30T04:00:02.979Z,142.87
2019-04-30T04:02:40.921Z,129.07
2019-04-30T04:05:36.082Z,130.17
2019-04-30T04:08:30.829Z,128.40
2019-04-30T04:11:10.227Z,129.03
2019-04-30T04:13:40.154Z,127.63
2019-04-30T04:16:11.153Z,127.13
2019-04-30T04:18:41.026Z,126.93
2019-04-30T04:21:16.500Z,128.10
2019-04-30T04:23:42.214Z,128.77
2019-04-30T04:26:12.048Z,128.63
2019-04-30T04:28:43.657Z,127.37
2019-04-30T04:31:13.548Z,127.47
2019-04-30T04:33:43.315Z,131.13
2019-04-30T04:36:13.142Z,127.77
2019-04-30T04:38:42.939Z,126.93
2019-04-30T04:41:12.746Z,128.10
2019-04-30T04:43:42.493Z,134.27
2019-04-30T04:46:12.229Z,130.27
2019-04-30T04:48:41.970Z,128.47
2019-04-30T04:51:27.663Z,130.77
2019-04-30T04:53:43.229Z,134.83
2019-04-30T04:56:13.029Z,129.93
2019-04-30T04:58:42.748Z,131.13
2019-04-30T05:01:12.467Z,135.00
2019-04-30T05:03:42.247Z,130.23
2019-04-30T05:06:12.097Z,128.90
2019-04-30T05:08:41.938Z,131.83
2019-04-30T05:11:11.729Z,131.43
2019-04-30T05:13:41.554Z,132.67
2019-04-30T05:16:11.426Z,129.43
2019-04-30T05:18:41.131Z,127.43
2019-04-30T05:21:10.866Z,128.83
2019-04-30T05:23:42.703Z,130.17
2019-04-30T05:26:12.071Z,131.73
2019-04-30T05:28:41.822Z,136.00
2019-04-30T05:31:11.703Z,129.87
2019-04-30T05:33:41.643Z,129.83
2019-04-30T05:36:11.464Z,129.47
2019-04-30T05:38:42.196Z,128.43
2019-04-30T05:41:11.923Z,132.43
2019-04-30T05:43:41.638Z,131.47
2019-04-30T05:46:14.052Z,133.77
2019-04-30T05:48:43.046Z,131.30
2019-04-30T05:51:12.850Z,131.67
2019-04-30T05:54:09.934Z,135.40
2019-04-30T05:56:42.702Z,133.97
2019-04-30T05:59:12.156Z,134.27
2019-04-30T06:01:48.106Z,130.53
2019-04-30T06:04:13.525Z,129.37
2019-04-30T06:06:43.422Z,131.37
2019-04-30T06:09:31.097Z,144.07
2019-04-30T06:12:09.451Z,134.33
2019-04-30T06:14:51.833Z,148.67
2019-04-30T06:17:22.074Z,150.20
2019-04-30T06:19:51.939Z,133.90
2019-04-30T06:22:22.871Z,137.03
2019-04-30T06:24:52.666Z,131.27
2019-04-30T06:27:22.772Z,134.43
2019-04-30T06:29:52.701Z,135.47
2019-04-30T06:32:22.802Z,136.17
2019-04-30T06:34:53.029Z,143.33
2019-04-30T06:37:23.135Z,139.87
2019-04-30T06:39:52.988Z,131.43
2019-04-30T06:42:39.285Z,132.80
2019-04-30T06:45:09.480Z,133.07
2019-04-30T06:47:41.187Z,133.63
2019-04-30T06:50:11.613Z,133.23
2019-04-30T06:52:41.540Z,135.63
2019-04-30T06:55:11.413Z,130.77
2019-04-30T06:57:41.148Z,132.60
2019-04-30T07:00:11.636Z,133.47
2019-04-30T07:02:41.443Z,133.80
2019-04-30T07:05:12.200Z,134.80
2019-04-30T07:08:08.876Z,136.00
2019-04-30T07:10:34.627Z,134.03
2019-04-30T07:13:23.539Z,139.23
2019-04-30T07:15:53.285Z,136.83
2019-04-30T07:18:23.035Z,137.23
2019-04-30T07:20:52.793Z,137.73
2019-04-30T07:23:22.581Z,136.73
2019-04-30T07:26:04.212Z,136.83
2019-04-30T07:28:46.574Z,137.53
2019-04-30T07:31:11.691Z,140.13
2019-04-30T07:33:39.464Z,140.20
2019-04-30T07:36:09.672Z,138.87
2019-04-30T07:38:51.779Z,140.53
2019-04-30T07:41:12.371Z,138.93
2019-04-30T07:43:42.351Z,139.77
2019-04-30T07:46:12.267Z,138.73
2019-04-30T07:48:42.246Z,140.67
2019-04-30T07:51:12.449Z,144.20
2019-04-30T07:53:42.635Z,145.17
2019-04-30T07:56:24.432Z,147.80
2019-04-30T07:58:43.860Z,148.87
2019-04-30T08:01:13.644Z,142.97
2019-04-30T08:04:08.993Z,150.23
2019-04-30T08:06:39.793Z,145.37
2019-04-30T08:09:10.940Z,142.77
2019-04-30T08:11:43.432Z,142.77
2019-04-30T08:14:12.385Z,146.00
2019-04-30T08:16:42.249Z,150.97
2019-04-30T08:19:12.042Z,146.93
2019-04-30T08:21:42.846Z,149.87
2019-04-30T08:24:12.604Z,151.53
2019-04-30T08:26:42.459Z,150.30
2019-04-30T08:29:12.220Z,153.30
2019-04-30T08:31:44.051Z,148.63
2019-04-30T08:34:13.843Z,157.63
2019-04-30T08:36:44.156Z,156.23
2019-04-30T08:39:13.931Z,160.87
2019-04-30T08:41:43.682Z,154.00
2019-04-30T08:44:13.496Z,165.60
2019-04-30T08:46:43.227Z,159.00
2019-04-30T08:49:13.215Z,158.97
2019-04-30T08:51:43.326Z,156.37
2019-04-30T08:54:16.299Z,164.53
2019-04-30T08:56:46.933Z,160.10
2019-04-30T08:59:16.650Z,162.83
2019-04-30T09:01:46.452Z,158.77
2019-04-30T09:04:16.325Z,166.40
2019-04-30T09:06:46.136Z,159.17
2019-04-30T09:09:18.862Z,155.13
2019-04-30T09:11:52.888Z,157.37
2019-04-30T09:14:20.365Z,162.33
2019-04-30T09:16:51.310Z,154.53
2019-04-30T09:19:23.771Z,156.77
2019-04-30T09:21:53.512Z,160.23
2019-04-30T09:24:23.339Z,158.83
2019-04-30T09:26:53.188Z,155.60
2019-04-30T09:29:23.022Z,156.17
2019-04-30T09:31:52.772Z,157.87
2019-04-30T09:34:22.623Z,161.03
2019-04-30T09:36:52.340Z,155.43
2019-04-30T09:39:23.121Z,161.43
2019-04-30T09:41:53.239Z,160.17
2019-04-30T09:44:22.968Z,160.67
2019-04-30T09:46:52.871Z,156.73
2019-04-30T09:49:22.767Z,158.60
2019-04-30T09:51:52.726Z,155.33
2019-04-30T09:54:22.872Z,158.37
2019-04-30T09:56:53.047Z,155.97
2019-04-30T09:59:22.763Z,157.10
2019-04-30T10:01:52.507Z,156.53
2019-04-30T10:04:22.810Z,165.07
2019-04-30T10:06:52.902Z,157.43
2019-04-30T10:09:22.818Z,154.90
2019-04-30T10:12:01.719Z,154.77
2019-04-30T10:14:31.567Z,157.53
2019-04-30T10:17:19.347Z,158.77
2019-04-30T10:19:49.325Z,160.63
2019-04-30T10:22:19.261Z,159.73
2019-04-30T10:24:49.513Z,158.30
2019-04-30T10:27:19.592Z,155.07
2019-04-30T10:29:50.098Z,158.90
2019-04-30T10:32:19.849Z,154.20
2019-04-30T10:34:49.688Z,158.33
2019-04-30T10:37:19.508Z,161.70
2019-04-30T10:39:49.421Z,152.80
2019-04-30T10:42:20.219Z,154.63
2019-04-30T10:44:50.483Z,156.30
2019-04-30T10:47:20.616Z,153.13
2019-04-30T10:49:50.950Z,151.67
2019-04-30T10:52:21.141Z,154.87
2019-04-30T10:54:51.335Z,149.10
2019-04-30T10:57:21.818Z,161.27
2019-04-30T10:59:51.924Z,151.53
2019-04-30T11:02:22.036Z,153.87
2019-04-30T11:04:52.232Z,152.53
2019-04-30T11:07:22.598Z,151.43
2019-04-30T11:09:52.711Z,152.20
2019-04-30T11:12:23.923Z,148.50
2019-04-30T11:14:53.981Z,147.07
2019-04-30T11:17:24.681Z,148.57
2019-04-30T11:19:55.270Z,149.20
2019-04-30T11:22:25.964Z,152.47
2019-04-30T11:25:00.021Z,149.17
2019-04-30T11:27:30.059Z,149.33
2019-04-30T11:30:03.287Z,149.27
2019-04-30T11:32:31.858Z,146.43
2019-04-30T11:35:02.111Z,153.23
2019-04-30T11:37:32.408Z,147.97
2019-04-30T11:40:02.558Z,151.80
2019-04-30T11:42:32.857Z,147.30
2019-04-30T11:45:03.124Z,148.03
2019-04-30T11:47:34.651Z,149.73
2019-04-30T11:50:08.752Z,152.30
2019-04-30T11:52:39.004Z,151.33
2019-04-30T11:55:10.410Z,145.63
2019-04-30T11:57:40.575Z,159.07
2019-04-30T12:00:15.249Z,143.83
2019-04-30T12:02:45.447Z,143.80
2019-04-30T12:05:20.532Z,148.17
2019-04-30T12:08:00.843Z,144.13
2019-04-30T12:10:48.537Z,143.57
2019-04-30T12:13:25.617Z,143.93
2019-04-30T12:15:56.294Z,143.47
2019-04-30T12:18:27.598Z,147.30
2019-04-30T12:20:57.645Z,145.07
2019-04-30T12:23:27.721Z,146.07
2019-04-30T12:26:00.965Z,148.93
2019-04-30T12:28:29.747Z,146.53
2019-04-30T12:31:00.054Z,144.40
2019-04-30T12:33:30.180Z,146.50
2019-04-30T12:36:00.421Z,144.87
2019-04-30T12:38:30.611Z,140.50
2019-04-30T12:41:00.803Z,142.07
2019-04-30T12:43:30.936Z,143.50
2019-04-30T12:46:05.294Z,146.00
2019-04-30T12:49:02.193Z,150.17
2019-04-30T12:51:58.837Z,144.23
2019-04-30T12:54:50.972Z,148.70
2019-04-30T12:57:29.465Z,144.53
2019-04-30T13:00:00.499Z,143.37
2019-04-30T13:02:32.731Z,146.47
2019-04-30T13:05:02.914Z,148.73
2019-04-30T13:07:33.742Z,144.07
2019-04-30T13:10:05.074Z,143.80
2019-04-30T13:12:36.353Z,146.70
2019-04-30T13:15:09.647Z,149.50
2019-04-30T13:17:39.853Z,147.77
2019-04-30T13:20:18.537Z,142.67
2019-04-30T13:22:44.275Z,146.00
2019-04-30T13:25:14.338Z,145.83
2019-04-30T13:27:48.240Z,144.57
2019-04-30T13:30:29.818Z,142.87
2019-04-30T13:33:06.377Z,146.73
2019-04-30T13:35:36.586Z,143.97
2019-04-30T13:38:16.457Z,144.90
2019-04-30T13:41:05.629Z,143.10
2019-04-30T13:43:53.352Z,146.53
2019-04-30T13:46:24.067Z,143.80
2019-04-30T13:48:54.215Z,142.70
2019-04-30T13:51:24.341Z,142.93
2019-04-30T13:53:54.579Z,143.30
2019-04-30T13:56:24.885Z,144.43
2019-04-30T13:58:54.981Z,143.40
2019-04-30T14:01:25.367Z,146.57
2019-04-30T14:04:14.463Z,141.90
2019-04-30T14:07:12.933Z,147.10
2019-04-30T14:09:43.407Z,146.27
2019-04-30T14:12:13.851Z,143.60
2019-04-30T14:14:43.996Z,146.53
2019-04-30T14:17:14.515Z,142.57
2019-04-30T14:19:44.636Z,144.90
2019-04-30T14:22:15.027Z,145.77
2019-04-30T14:24:45.218Z,148.27
2019-04-30T14:27:15.556Z,149.20
2019-04-30T14:29:45.728Z,144.03
2019-04-30T14:32:16.097Z,143.87
2019-04-30T14:34:46.222Z,146.43
2019-04-30T14:37:16.640Z,142.13
2019-04-30T14:39:46.848Z,143.07
2019-04-30T14:42:23.593Z,145.57
2019-04-30T14:45:04.515Z,148.43
2019-04-30T14:47:45.385Z,148.47
2019-04-30T14:50:18.656Z,145.30
2019-04-30T14:53:04.367Z,144.77
2019-04-30T14:55:53.268Z,145.43
2019-04-30T14:58:51.210Z,147.57
2019-04-30T15:01:40.292Z,143.73
2019-04-30T15:04:10.934Z,143.50
2019-04-30T15:06:40.912Z,142.63
2019-04-30T15:09:11.916Z,149.33
2019-04-30T15:11:42.111Z,142.80
2019-04-30T15:14:12.441Z,145.13
2019-04-30T15:16:42.359Z,144.27
2019-04-30T15:19:12.218Z,142.47
2019-04-30T15:21:41.940Z,147.30
2019-04-30T15:24:24.809Z,147.37
2019-04-30T15:26:57.552Z,150.90
2019-04-30T15:29:26.319Z,143.70
2019-04-30T15:31:56.111Z,144.03
2019-04-30T15:34:25.952Z,143.77
2019-04-30T15:36:55.802Z,143.47
2019-04-30T15:39:45.375Z,143.67
2019-04-30T15:42:16.075Z,143.67
2019-04-30T15:44:46.562Z,144.27
2019-04-30T15:47:18.593Z,141.80
2019-04-30T15:49:49.265Z,141.83
2019-04-30T15:52:19.204Z,148.10
2019-04-30T15:54:49.154Z,142.43
2019-04-30T15:57:20.137Z,144.73
2019-04-30T15:59:49.944Z,144.70
2019-04-30T16:02:53.654Z,143.43
2019-04-30T16:05:23.805Z,145.37
2019-04-30T16:08:00.446Z,146.23
2019-04-30T16:10:55.227Z,147.90
2019-04-30T16:13:28.968Z,144.40
2019-04-30T16:15:59.188Z,145.23
2019-04-30T16:18:35.839Z,142.77
2019-04-30T16:21:05.839Z,142.87
2019-04-30T16:23:35.687Z,142.33
2019-04-30T16:26:05.471Z,141.23
2019-04-30T16:28:36.179Z,147.23
2019-04-30T16:31:06.540Z,144.37
2019-04-30T16:33:36.498Z,143.73
2019-04-30T16:36:06.466Z,148.43
2019-04-30T16:38:36.372Z,144.33
2019-04-30T16:41:06.279Z,148.87
2019-04-30T16:43:36.115Z,144.60
2019-04-30T16:46:06.221Z,143.83
2019-04-30T16:48:36.114Z,141.13
2019-04-30T16:51:05.951Z,141.23
2019-04-30T16:53:35.847Z,142.83
2019-04-30T16:56:05.616Z,144.63
2019-04-30T16:58:53.318Z,141.60
2019-04-30T17:01:23.268Z,144.23
2019-04-30T17:03:55.240Z,141.53
2019-04-30T17:06:26.179Z,140.13
2019-04-30T17:09:05.555Z,142.17
2019-04-30T17:12:03.526Z,140.93
2019-04-30T17:14:34.129Z,143.63
2019-04-30T17:17:03.925Z,139.10
2019-04-30T17:19:33.710Z,141.77
2019-04-30T17:22:03.559Z,139.43
2019-04-30T17:24:33.415Z,139.20
2019-04-30T17:27:15.910Z,140.17
2019-04-30T17:29:35.039Z,138.83
2019-04-30T17:32:05.045Z,139.27
2019-04-30T17:34:34.881Z,140.43
2019-04-30T17:37:05.042Z,144.57
2019-04-30T17:39:35.006Z,140.93
2019-04-30T17:42:04.957Z,140.10
2019-04-30T17:44:34.719Z,140.07
2019-04-30T17:47:04.529Z,138.57
2019-04-30T17:49:34.392Z,138.40
2019-04-30T17:52:04.287Z,137.97
2019-04-30T17:54:35.298Z,138.63
2019-04-30T17:57:06.126Z,138.33
2019-04-30T17:59:35.918Z,137.00
2019-04-30T18:02:07.166Z,142.00
2019-04-30T18:04:37.006Z,139.13
2019-04-30T18:07:06.718Z,138.63
2019-04-30T18:09:36.573Z,139.50
2019-04-30T18:12:06.340Z,138.13
2019-04-30T18:14:36.071Z,140.43
2019-04-30T18:17:06.063Z,139.03
2019-04-30T18:19:54.866Z,138.07
2019-04-30T18:22:41.842Z,137.07
2019-04-30T18:25:23.487Z,137.47
2019-04-30T18:27:56.792Z,137.53
2019-04-30T18:51:38.433Z,138.60
2019-04-30T18:53:57.710Z,138.50
2019-04-30T18:56:29.004Z,138.33
2019-04-30T18:58:58.909Z,134.60
2019-04-30T19:01:28.790Z,134.73
2019-04-30T19:04:01.074Z,135.80
2019-04-30T19:06:30.033Z,137.87
2019-04-30T19:09:29.692Z,137.57
2019-04-30T19:12:19.417Z,134.97
2019-04-30T19:15:03.014Z,135.33
2019-04-30T19:17:51.061Z,135.40
2019-04-30T19:20:31.221Z,134.43
2019-04-30T19:23:01.051Z,134.90
2019-04-30T19:25:30.780Z,136.73
2019-04-30T19:28:11.623Z,135.97
2019-04-30T19:30:32.931Z,141.53
2019-04-30T19:33:03.060Z,134.67
2019-04-30T19:35:33.195Z,134.17
2019-04-30T19:38:03.038Z,135.40
2019-04-30T19:40:32.966Z,135.37
2019-04-30T19:43:02.634Z,134.60
2019-04-30T19:45:32.307Z,134.97
2019-04-30T19:48:01.987Z,137.33
2019-04-30T19:50:31.651Z,138.27
2019-04-30T19:53:01.322Z,136.53
2019-04-30T19:55:31.091Z,136.43
2019-04-30T19:58:00.772Z,135.63
2019-04-30T20:00:31.008Z,134.27
2019-04-30T20:03:00.914Z,133.27
2019-04-30T20:05:32.474Z,135.50
2019-04-30T20:08:02.347Z,136.10
2019-04-30T20:10:32.699Z,134.80
2019-04-30T20:13:02.346Z,136.03
2019-04-30T20:15:32.251Z,140.10
2019-04-30T20:18:04.827Z,138.27
2019-04-30T20:20:34.639Z,135.27
2019-04-30T20:23:04.666Z,136.13
2019-04-30T20:25:35.386Z,134.57
2019-04-30T20:28:05.286Z,136.13
2019-04-30T20:30:35.176Z,137.00
2019-04-30T20:33:04.847Z,137.00
2019-04-30T20:35:34.512Z,137.13
2019-04-30T20:38:21.555Z,137.33
2019-04-30T20:41:00.004Z,136.87
2019-04-30T20:43:23.276Z,136.97
2019-04-30T20:45:53.003Z,139.07
2019-04-30T20:48:22.676Z,138.23
2019-04-30T20:50:52.411Z,137.23
2019-04-30T20:53:22.107Z,136.73
2019-04-30T20:55:51.770Z,138.47
2019-04-30T20:58:21.443Z,136.23
2019-04-30T21:01:01.090Z,138.23
2019-04-30T21:03:22.682Z,136.50
2019-04-30T21:05:52.355Z,140.23
2019-04-30T21:08:22.026Z,139.30
2019-04-30T21:10:52.751Z,138.97
2019-04-30T21:13:22.520Z,139.57
2019-04-30T21:15:54.943Z,140.53
2019-04-30T21:18:23.563Z,138.00
2019-04-30T21:20:53.294Z,141.47
2019-04-30T21:23:22.966Z,141.30
2019-04-30T21:25:52.808Z,138.07
2019-04-30T21:28:22.479Z,139.97
2019-04-30T21:30:52.143Z,143.77
2019-04-30T21:33:43.887Z,140.20
2019-04-30T21:36:19.455Z,139.30
2019-04-30T21:38:49.202Z,138.73
2019-04-30T21:41:19.567Z,138.77
2019-04-30T21:43:50.388Z,136.40
2019-04-30T21:46:20.075Z,138.50
2019-04-30T21:48:49.738Z,139.77
2019-04-30T21:51:19.411Z,138.63
2019-04-30T21:53:50.396Z,141.33
2019-04-30T21:56:20.283Z,143.47
2019-04-30T21:58:49.947Z,138.67
2019-04-30T22:01:22.558Z,138.17
2019-04-30T22:03:54.314Z,137.47
2019-04-30T22:06:24.059Z,135.20
2019-04-30T22:08:53.806Z,139.23
2019-04-30T22:11:23.626Z,138.60
2019-04-30T22:13:53.294Z,141.27
2019-04-30T22:16:23.043Z,139.33
2019-04-30T22:18:52.792Z,138.57
2019-04-30T22:21:22.549Z,144.53
2019-04-30T22:23:52.211Z,141.80
2019-04-30T22:26:21.939Z,139.67
2019-04-30T22:28:51.615Z,142.47
2019-04-30T22:31:21.286Z,135.43
2019-04-30T22:33:51.173Z,137.63
2019-04-30T22:36:25.965Z,139.10
2019-04-30T22:39:12.146Z,138.00
2019-04-30T22:41:41.824Z,141.13
2019-04-30T22:44:11.759Z,138.37
2019-04-30T22:46:41.423Z,135.03
2019-04-30T22:49:11.168Z,136.70
2019-04-30T22:51:40.836Z,140.17
2019-04-30T22:54:11.579Z,139.63
2019-04-30T22:56:41.255Z,136.40
2019-04-30T22:59:10.934Z,134.57
2019-04-30T23:01:52.718Z,135.27
2019-04-30T23:04:30.734Z,144.10
2019-04-30T23:07:00.428Z,138.20
2019-04-30T23:09:30.139Z,140.83
2019-04-30T23:11:59.799Z,139.13
2019-04-30T23:14:29.615Z,142.00
2019-04-30T23:16:59.343Z,140.47
2019-04-30T23:19:29.286Z,140.77
2019-04-30T23:22:00.014Z,138.97
2019-04-30T23:24:29.679Z,140.47
2019-04-30T23:26:59.343Z,137.20
2019-04-30T23:29:29.010Z,139.97
2019-04-30T23:31:58.671Z,140.47
2019-04-30T23:34:28.339Z,137.50
2019-04-30T23:36:58.007Z,140.23
2019-04-30T23:39:27.670Z,143.93
2019-04-30T23:41:57.325Z,138.53
2019-04-30T23:44:27.098Z,137.87
2019-04-30T23:46:56.757Z,139.53
2019-04-30T23:49:26.494Z,136.17
2019-04-30T23:51:56.151Z,136.37
2019-04-30T23:54:25.915Z,137.63
2019-04-30T23:56:55.574Z,141.73
2019-04-30T23:59:25.319Z,139.13
